sensor_id;sensor_type;location;lat;lon;timestamp;P1;durP1;ratioP1;P2;durP2;ratioP2
64351;SDS011;50680;52.626;-8.668;2022-08-01T00:00:06;4.53;;;1.20;;
64351;SDS011;50680;52.626;-8.668;2022-08-01T00:02:38;6.00;;;1.40;;
64351;SDS011;50680;52.626;-8.668;2022-08-01T00:05:05;3.97;;;1.50;;
64351;SDS011;50680;52.626;-8.668;2022-08-01T00:07:34;4.22;;;1.98;;
64351;SDS011;50680;52.626;-8.668;2022-08-01T00:10:06;4.10;;;1.30;;
64351;SDS011;50680;52.626;-8.668;2022-08-01T00:12:37;2.80;;;1.40;;
64351;SDS011;50680;52.626;-8.668;2022-08-01T00:15:06;5.18;;;1.45;;
64351;SDS011;50680;52.626;-8.668;2022-08-01T00:17:34;2.90;;;1.10;;
64351;SDS011;50680;52.626;-8.668;2022-08-01T00:20:02;3.35;;;1.30;;
64351;SDS011;50680;52.626;-8.668;2022-08-01T00:22:31;8.15;;;1.00;;
64351;SDS011;50680;52.626;-8.668;2022-08-01T00:24:58;5.10;;;1.10;;
64351;SDS011;50680;52.626;-8.668;2022-08-01T00:27:26;2.75;;;0.85;;
64351;SDS011;50680;52.626;-8.668;2022-08-01T00:29:53;3.47;;;1.10;;
64351;SDS011;50680;52.626;-8.668;2022-08-01T00:32:39;5.43;;;1.45;;
64351;SDS011;50680;52.626;-8.668;2022-08-01T00:35:07;4.78;;;1.17;;
64351;SDS011;50680;52.626;-8.668;2022-08-01T00:37:34;5.53;;;1.40;;
64351;SDS011;50680;52.626;-8.668;2022-08-01T00:40:02;8.13;;;2.17;;
64351;SDS011;50680;52.626;-8.668;2022-08-01T00:42:29;5.03;;;2.00;;
64351;SDS011;50680;52.626;-8.668;2022-08-01T00:44:56;4.18;;;1.40;;
64351;SDS011;50680;52.626;-8.668;2022-08-01T00:47:23;3.78;;;1.33;;
64351;SDS011;50680;52.626;-8.668;2022-08-01T00:49:50;3.25;;;1.70;;
64351;SDS011;50680;52.626;-8.668;2022-08-01T00:52:17;3.13;;;1.92;;
64351;SDS011;50680;52.626;-8.668;2022-08-01T00:54:44;6.85;;;2.40;;
64351;SDS011;50680;52.626;-8.668;2022-08-01T00:57:11;4.65;;;3.00;;
64351;SDS011;50680;52.626;-8.668;2022-08-01T00:59:40;4.35;;;3.00;;
64351;SDS011;50680;52.626;-8.668;2022-08-01T01:02:08;4.03;;;2.47;;
64351;SDS011;50680;52.626;-8.668;2022-08-01T01:04:41;10.77;;;3.08;;
64351;SDS011;50680;52.626;-8.668;2022-08-01T01:15:10;3.92;;;2.10;;
64351;SDS011;50680;52.626;-8.668;2022-08-01T01:20:24;3.60;;;2.03;;
64351;SDS011;50680;52.626;-8.668;2022-08-01T01:23:05;6.35;;;2.50;;
64351;SDS011;50680;52.626;-8.668;2022-08-01T01:30:44;3.10;;;2.10;;
64351;SDS011;50680;52.626;-8.668;2022-08-01T01:33:15;5.72;;;2.47;;
64351;SDS011;50680;52.626;-8.668;2022-08-01T01:35:46;5.85;;;2.70;;
64351;SDS011;50680;52.626;-8.668;2022-08-01T01:38:18;4.53;;;2.80;;
64351;SDS011;50680;52.626;-8.668;2022-08-01T01:40:49;4.30;;;2.22;;
64351;SDS011;50680;52.626;-8.668;2022-08-01T01:43:18;8.15;;;2.05;;
64351;SDS011;50680;52.626;-8.668;2022-08-01T01:45:54;5.00;;;2.50;;
64351;SDS011;50680;52.626;-8.668;2022-08-01T01:48:22;2.80;;;2.00;;
64351;SDS011;50680;52.626;-8.668;2022-08-01T01:50:51;6.32;;;2.03;;
64351;SDS011;50680;52.626;-8.668;2022-08-01T01:53:19;4.38;;;2.30;;
64351;SDS011;50680;52.626;-8.668;2022-08-01T01:55:50;5.78;;;1.92;;
64351;SDS011;50680;52.626;-8.668;2022-08-01T01:58:20;4.95;;;2.00;;
64351;SDS011;50680;52.626;-8.668;2022-08-01T02:00:48;3.63;;;1.58;;
64351;SDS011;50680;52.626;-8.668;2022-08-01T02:03:18;5.28;;;1.92;;
64351;SDS011;50680;52.626;-8.668;2022-08-01T02:05:47;4.75;;;1.80;;
64351;SDS011;50680;52.626;-8.668;2022-08-01T02:08:16;3.38;;;1.77;;
64351;SDS011;50680;52.626;-8.668;2022-08-01T02:10:45;3.75;;;1.98;;
64351;SDS011;50680;52.626;-8.668;2022-08-01T02:13:33;3.13;;;1.75;;
64351;SDS011;50680;52.626;-8.668;2022-08-01T02:16:02;5.22;;;2.08;;
64351;SDS011;50680;52.626;-8.668;2022-08-01T02:18:30;9.00;;;2.10;;
64351;SDS011;50680;52.626;-8.668;2022-08-01T02:20:58;2.83;;;1.80;;
64351;SDS011;50680;52.626;-8.668;2022-08-01T02:23:31;3.80;;;2.00;;
64351;SDS011;50680;52.626;-8.668;2022-08-01T02:26:00;9.82;;;2.13;;
64351;SDS011;50680;52.626;-8.668;2022-08-01T02:28:47;7.35;;;2.00;;
64351;SDS011;50680;52.626;-8.668;2022-08-01T02:31:20;4.97;;;1.85;;
64351;SDS011;50680;52.626;-8.668;2022-08-01T02:33:54;3.85;;;1.50;;
64351;SDS011;50680;52.626;-8.668;2022-08-01T02:36:25;5.18;;;1.70;;
64351;SDS011;50680;52.626;-8.668;2022-08-01T02:38:59;5.85;;;1.90;;
64351;SDS011;50680;52.626;-8.668;2022-08-01T02:41:37;6.97;;;1.92;;
64351;SDS011;50680;52.626;-8.668;2022-08-01T02:44:10;5.60;;;1.92;;
64351;SDS011;50680;52.626;-8.668;2022-08-01T02:46:49;2.03;;;1.48;;
64351;SDS011;50680;52.626;-8.668;2022-08-01T02:49:19;3.00;;;2.13;;
64351;SDS011;50680;52.626;-8.668;2022-08-01T02:51:47;6.95;;;2.22;;
64351;SDS011;50680;52.626;-8.668;2022-08-01T02:54:16;2.92;;;2.00;;
64351;SDS011;50680;52.626;-8.668;2022-08-01T02:56:44;5.30;;;2.03;;
64351;SDS011;50680;52.626;-8.668;2022-08-01T02:59:15;4.03;;;1.90;;
64351;SDS011;50680;52.626;-8.668;2022-08-01T03:01:47;6.30;;;2.03;;
64351;SDS011;50680;52.626;-8.668;2022-08-01T03:04:16;4.15;;;1.67;;
64351;SDS011;50680;52.626;-8.668;2022-08-01T03:06:45;4.43;;;1.73;;
64351;SDS011;50680;52.626;-8.668;2022-08-01T03:09:13;4.03;;;1.70;;
64351;SDS011;50680;52.626;-8.668;2022-08-01T03:11:42;3.70;;;1.80;;
64351;SDS011;50680;52.626;-8.668;2022-08-01T03:14:11;8.35;;;1.90;;
64351;SDS011;50680;52.626;-8.668;2022-08-01T03:16:40;6.38;;;1.67;;
64351;SDS011;50680;52.626;-8.668;2022-08-01T03:19:10;3.58;;;1.77;;
64351;SDS011;50680;52.626;-8.668;2022-08-01T03:21:40;3.90;;;1.77;;
64351;SDS011;50680;52.626;-8.668;2022-08-01T03:24:09;3.03;;;1.75;;
64351;SDS011;50680;52.626;-8.668;2022-08-01T03:26:38;3.10;;;1.77;;
64351;SDS011;50680;52.626;-8.668;2022-08-01T03:29:11;3.60;;;2.03;;
64351;SDS011;50680;52.626;-8.668;2022-08-01T03:31:41;3.72;;;1.58;;
64351;SDS011;50680;52.626;-8.668;2022-08-01T03:34:11;7.13;;;1.60;;
64351;SDS011;50680;52.626;-8.668;2022-08-01T03:36:42;4.20;;;1.67;;
64351;SDS011;50680;52.626;-8.668;2022-08-01T03:39:15;3.42;;;1.77;;
64351;SDS011;50680;52.626;-8.668;2022-08-01T03:41:46;2.20;;;1.77;;
64351;SDS011;50680;52.626;-8.668;2022-08-01T03:44:22;4.05;;;1.90;;
64351;SDS011;50680;52.626;-8.668;2022-08-01T03:47:08;5.78;;;2.00;;
64351;SDS011;50680;52.626;-8.668;2022-08-01T03:49:37;3.78;;;1.75;;
64351;SDS011;50680;52.626;-8.668;2022-08-01T03:52:09;11.18;;;2.42;;
64351;SDS011;50680;52.626;-8.668;2022-08-01T03:54:38;7.20;;;1.80;;
64351;SDS011;50680;52.626;-8.668;2022-08-01T03:57:09;4.95;;;1.88;;
64351;SDS011;50680;52.626;-8.668;2022-08-01T03:59:57;3.30;;;1.35;;
64351;SDS011;50680;52.626;-8.668;2022-08-01T04:02:26;4.82;;;1.70;;
64351;SDS011;50680;52.626;-8.668;2022-08-01T04:04:54;4.60;;;2.25;;
64351;SDS011;50680;52.626;-8.668;2022-08-01T04:07:25;7.80;;;1.63;;
64351;SDS011;50680;52.626;-8.668;2022-08-01T04:09:56;6.35;;;1.80;;
64351;SDS011;50680;52.626;-8.668;2022-08-01T04:12:23;4.53;;;1.75;;
64351;SDS011;50680;52.626;-8.668;2022-08-01T04:14:50;5.78;;;1.77;;
64351;SDS011;50680;52.626;-8.668;2022-08-01T04:17:17;4.57;;;1.58;;
64351;SDS011;50680;52.626;-8.668;2022-08-01T04:19:44;4.40;;;1.73;;
64351;SDS011;50680;52.626;-8.668;2022-08-01T04:22:13;5.05;;;2.10;;
64351;SDS011;50680;52.626;-8.668;2022-08-01T04:24:41;3.00;;;1.40;;
64351;SDS011;50680;52.626;-8.668;2022-08-01T04:27:14;2.92;;;2.13;;
64351;SDS011;50680;52.626;-8.668;2022-08-01T04:30:05;10.18;;;1.90;;
64351;SDS011;50680;52.626;-8.668;2022-08-01T04:32:34;4.13;;;1.60;;
64351;SDS011;50680;52.626;-8.668;2022-08-01T04:35:07;7.05;;;1.92;;
64351;SDS011;50680;52.626;-8.668;2022-08-01T04:37:58;5.65;;;2.20;;
64351;SDS011;50680;52.626;-8.668;2022-08-01T04:40:28;2.78;;;1.60;;
64351;SDS011;50680;52.626;-8.668;2022-08-01T04:42:55;5.18;;;2.08;;
64351;SDS011;50680;52.626;-8.668;2022-08-01T04:45:23;3.40;;;1.90;;
64351;SDS011;50680;52.626;-8.668;2022-08-01T04:47:50;4.80;;;1.90;;
64351;SDS011;50680;52.626;-8.668;2022-08-01T04:50:18;4.40;;;2.00;;
64351;SDS011;50680;52.626;-8.668;2022-08-01T04:52:48;3.75;;;2.42;;
64351;SDS011;50680;52.626;-8.668;2022-08-01T04:55:15;5.28;;;1.92;;
64351;SDS011;50680;52.626;-8.668;2022-08-01T04:57:44;6.43;;;1.67;;
64351;SDS011;50680;52.626;-8.668;2022-08-01T05:00:13;3.38;;;2.30;;
64351;SDS011;50680;52.626;-8.668;2022-08-01T05:02:43;4.85;;;2.35;;
64351;SDS011;50680;52.626;-8.668;2022-08-01T05:05:10;6.65;;;2.47;;
64351;SDS011;50680;52.626;-8.668;2022-08-01T05:07:38;5.82;;;2.10;;
64351;SDS011;50680;52.626;-8.668;2022-08-01T05:10:11;5.50;;;2.20;;
64351;SDS011;50680;52.626;-8.668;2022-08-01T05:12:38;5.05;;;2.17;;
64351;SDS011;50680;52.626;-8.668;2022-08-01T05:15:05;5.40;;;2.10;;
64351;SDS011;50680;52.626;-8.668;2022-08-01T05:17:40;2.97;;;2.05;;
64351;SDS011;50680;52.626;-8.668;2022-08-01T05:20:09;3.70;;;1.83;;
64351;SDS011;50680;52.626;-8.668;2022-08-01T05:22:37;5.03;;;2.10;;
64351;SDS011;50680;52.626;-8.668;2022-08-01T05:25:05;3.33;;;2.03;;
64351;SDS011;50680;52.626;-8.668;2022-08-01T05:27:33;2.97;;;1.92;;
64351;SDS011;50680;52.626;-8.668;2022-08-01T05:30:05;4.20;;;1.98;;
64351;SDS011;50680;52.626;-8.668;2022-08-01T05:32:34;5.95;;;1.80;;
64351;SDS011;50680;52.626;-8.668;2022-08-01T05:35:01;5.13;;;1.70;;
64351;SDS011;50680;52.626;-8.668;2022-08-01T05:37:28;3.03;;;2.00;;
64351;SDS011;50680;52.626;-8.668;2022-08-01T05:39:55;2.83;;;1.73;;
64351;SDS011;50680;52.626;-8.668;2022-08-01T05:42:22;3.30;;;1.92;;
64351;SDS011;50680;52.626;-8.668;2022-08-01T05:44:49;3.80;;;1.65;;
64351;SDS011;50680;52.626;-8.668;2022-08-01T05:47:17;3.67;;;1.80;;
64351;SDS011;50680;52.626;-8.668;2022-08-01T05:49:44;2.38;;;1.77;;
64351;SDS011;50680;52.626;-8.668;2022-08-01T05:52:12;2.85;;;1.88;;
64351;SDS011;50680;52.626;-8.668;2022-08-01T05:54:39;1.88;;;1.45;;
64351;SDS011;50680;52.626;-8.668;2022-08-01T05:57:06;2.78;;;1.73;;
64351;SDS011;50680;52.626;-8.668;2022-08-01T05:59:33;3.17;;;1.50;;
64351;SDS011;50680;52.626;-8.668;2022-08-01T06:02:00;5.55;;;2.17;;
64351;SDS011;50680;52.626;-8.668;2022-08-01T06:04:27;4.28;;;1.40;;
64351;SDS011;50680;52.626;-8.668;2022-08-01T06:06:54;4.85;;;1.60;;
64351;SDS011;50680;52.626;-8.668;2022-08-01T06:09:21;2.50;;;1.33;;
64351;SDS011;50680;52.626;-8.668;2022-08-01T06:11:48;2.10;;;0.93;;
64351;SDS011;50680;52.626;-8.668;2022-08-01T06:14:15;2.22;;;1.13;;
64351;SDS011;50680;52.626;-8.668;2022-08-01T06:16:42;2.13;;;1.00;;
64351;SDS011;50680;52.626;-8.668;2022-08-01T06:19:09;1.85;;;1.30;;
64351;SDS011;50680;52.626;-8.668;2022-08-01T06:21:36;1.27;;;1.00;;
64351;SDS011;50680;52.626;-8.668;2022-08-01T06:24:03;1.98;;;1.10;;
64351;SDS011;50680;52.626;-8.668;2022-08-01T06:26:30;2.42;;;1.10;;
64351;SDS011;50680;52.626;-8.668;2022-08-01T06:28:57;2.47;;;1.10;;
64351;SDS011;50680;52.626;-8.668;2022-08-01T06:31:24;2.95;;;1.00;;
64351;SDS011;50680;52.626;-8.668;2022-08-01T06:33:58;1.27;;;0.90;;
64351;SDS011;50680;52.626;-8.668;2022-08-01T06:36:25;2.78;;;1.25;;
64351;SDS011;50680;52.626;-8.668;2022-08-01T06:38:52;2.25;;;1.38;;
64351;SDS011;50680;52.626;-8.668;2022-08-01T06:41:19;3.25;;;1.00;;
64351;SDS011;50680;52.626;-8.668;2022-08-01T06:43:46;3.88;;;1.10;;
64351;SDS011;50680;52.626;-8.668;2022-08-01T06:46:13;3.42;;;0.88;;
64351;SDS011;50680;52.626;-8.668;2022-08-01T06:48:40;2.97;;;0.88;;
64351;SDS011;50680;52.626;-8.668;2022-08-01T06:51:07;4.53;;;1.10;;
64351;SDS011;50680;52.626;-8.668;2022-08-01T06:53:40;1.38;;;0.85;;
64351;SDS011;50680;52.626;-8.668;2022-08-01T06:56:09;1.15;;;0.95;;
64351;SDS011;50680;52.626;-8.668;2022-08-01T06:58:36;1.58;;;0.90;;
64351;SDS011;50680;52.626;-8.668;2022-08-01T07:01:04;2.60;;;0.68;;
64351;SDS011;50680;52.626;-8.668;2022-08-01T07:03:33;2.47;;;0.90;;
64351;SDS011;50680;52.626;-8.668;2022-08-01T07:06:20;1.23;;;0.90;;
64351;SDS011;50680;52.626;-8.668;2022-08-01T07:11:21;2.53;;;0.80;;
64351;SDS011;50680;52.626;-8.668;2022-08-01T07:13:50;2.00;;;0.82;;
64351;SDS011;50680;52.626;-8.668;2022-08-01T07:16:17;1.38;;;0.73;;
64351;SDS011;50680;52.626;-8.668;2022-08-01T07:18:44;1.80;;;0.60;;
64351;SDS011;50680;52.626;-8.668;2022-08-01T07:21:11;1.45;;;0.60;;
64351;SDS011;50680;52.626;-8.668;2022-08-01T07:23:58;2.35;;;0.70;;
64351;SDS011;50680;52.626;-8.668;2022-08-01T07:26:25;1.17;;;0.70;;
64351;SDS011;50680;52.626;-8.668;2022-08-01T07:28:53;3.15;;;0.65;;
64351;SDS011;50680;52.626;-8.668;2022-08-01T07:31:20;2.20;;;0.85;;
64351;SDS011;50680;52.626;-8.668;2022-08-01T07:33:47;1.63;;;1.05;;
64351;SDS011;50680;52.626;-8.668;2022-08-01T07:36:15;1.40;;;0.50;;
64351;SDS011;50680;52.626;-8.668;2022-08-01T07:38:43;1.88;;;0.60;;
64351;SDS011;50680;52.626;-8.668;2022-08-01T07:41:11;1.13;;;0.63;;
64351;SDS011;50680;52.626;-8.668;2022-08-01T07:43:37;1.27;;;0.70;;
64351;SDS011;50680;52.626;-8.668;2022-08-01T07:46:05;1.90;;;0.68;;
64351;SDS011;50680;52.626;-8.668;2022-08-01T07:48:33;1.98;;;1.08;;
64351;SDS011;50680;52.626;-8.668;2022-08-01T07:51:00;1.83;;;0.75;;
64351;SDS011;50680;52.626;-8.668;2022-08-01T07:53:27;0.88;;;0.70;;
64351;SDS011;50680;52.626;-8.668;2022-08-01T07:55:54;1.00;;;0.68;;
64351;SDS011;50680;52.626;-8.668;2022-08-01T07:58:20;1.65;;;0.60;;
64351;SDS011;50680;52.626;-8.668;2022-08-01T08:00:47;5.82;;;0.85;;
64351;SDS011;50680;52.626;-8.668;2022-08-01T08:03:14;2.00;;;0.80;;
64351;SDS011;50680;52.626;-8.668;2022-08-01T08:05:41;2.13;;;0.70;;
64351;SDS011;50680;52.626;-8.668;2022-08-01T08:08:24;1.63;;;0.82;;
64351;SDS011;50680;52.626;-8.668;2022-08-01T08:10:51;1.67;;;0.70;;
64351;SDS011;50680;52.626;-8.668;2022-08-01T08:13:18;1.42;;;0.90;;
64351;SDS011;50680;52.626;-8.668;2022-08-01T08:15:46;0.85;;;0.63;;
64351;SDS011;50680;52.626;-8.668;2022-08-01T08:18:14;1.60;;;0.75;;
64351;SDS011;50680;52.626;-8.668;2022-08-01T08:20:41;1.20;;;0.70;;
64351;SDS011;50680;52.626;-8.668;2022-08-01T08:23:08;1.63;;;0.80;;
64351;SDS011;50680;52.626;-8.668;2022-08-01T08:26:09;2.58;;;0.70;;
64351;SDS011;50680;52.626;-8.668;2022-08-01T08:28:37;1.63;;;0.77;;
64351;SDS011;50680;52.626;-8.668;2022-08-01T08:31:06;2.88;;;1.00;;
64351;SDS011;50680;52.626;-8.668;2022-08-01T08:33:53;3.15;;;1.00;;
64351;SDS011;50680;52.626;-8.668;2022-08-01T08:36:21;1.00;;;0.90;;
64351;SDS011;50680;52.626;-8.668;2022-08-01T08:38:57;5.85;;;1.00;;
64351;SDS011;50680;52.626;-8.668;2022-08-01T08:41:28;1.98;;;0.80;;
64351;SDS011;50680;52.626;-8.668;2022-08-01T08:44:06;1.25;;;1.10;;
64351;SDS011;50680;52.626;-8.668;2022-08-01T08:46:42;2.00;;;1.00;;
64351;SDS011;50680;52.626;-8.668;2022-08-01T08:49:12;2.25;;;1.00;;
64351;SDS011;50680;52.626;-8.668;2022-08-01T08:51:47;1.83;;;1.25;;
64351;SDS011;50680;52.626;-8.668;2022-08-01T08:54:16;1.33;;;1.10;;
64351;SDS011;50680;52.626;-8.668;2022-08-01T08:56:46;1.60;;;0.73;;
64351;SDS011;50680;52.626;-8.668;2022-08-01T08:59:13;5.05;;;0.80;;
64351;SDS011;50680;52.626;-8.668;2022-08-01T09:01:41;1.45;;;0.75;;
64351;SDS011;50680;52.626;-8.668;2022-08-01T09:04:09;1.73;;;0.88;;
64351;SDS011;50680;52.626;-8.668;2022-08-01T09:06:37;0.75;;;0.60;;
64351;SDS011;50680;52.626;-8.668;2022-08-01T09:09:05;1.63;;;0.80;;
64351;SDS011;50680;52.626;-8.668;2022-08-01T09:11:33;1.58;;;0.90;;
64351;SDS011;50680;52.626;-8.668;2022-08-01T09:14:05;0.85;;;0.57;;
64351;SDS011;50680;52.626;-8.668;2022-08-01T09:16:34;1.00;;;0.75;;
64351;SDS011;50680;52.626;-8.668;2022-08-01T09:22:06;0.70;;;0.60;;
64351;SDS011;50680;52.626;-8.668;2022-08-01T09:24:38;0.85;;;0.70;;
64351;SDS011;50680;52.626;-8.668;2022-08-01T09:27:19;1.38;;;0.90;;
64351;SDS011;50680;52.626;-8.668;2022-08-01T09:29:50;1.02;;;0.80;;
64351;SDS011;50680;52.626;-8.668;2022-08-01T09:32:27;0.65;;;0.60;;
64351;SDS011;50680;52.626;-8.668;2022-08-01T09:38:22;1.55;;;0.77;;
64351;SDS011;50680;52.626;-8.668;2022-08-01T09:40:51;1.05;;;0.75;;
64351;SDS011;50680;52.626;-8.668;2022-08-01T09:43:24;0.60;;;0.50;;
64351;SDS011;50680;52.626;-8.668;2022-08-01T09:45:53;1.20;;;0.80;;
64351;SDS011;50680;52.626;-8.668;2022-08-01T09:48:23;3.42;;;0.65;;
64351;SDS011;50680;52.626;-8.668;2022-08-01T09:50:55;0.70;;;0.60;;
64351;SDS011;50680;52.626;-8.668;2022-08-01T09:53:42;2.25;;;0.30;;
64351;SDS011;50680;52.626;-8.668;2022-08-01T09:56:16;0.50;;;0.30;;
64351;SDS011;50680;52.626;-8.668;2022-08-01T10:01:28;0.50;;;0.30;;
64351;SDS011;50680;52.626;-8.668;2022-08-01T10:04:12;2.15;;;0.35;;
64351;SDS011;50680;52.626;-8.668;2022-08-01T10:06:46;0.40;;;0.40;;
64351;SDS011;50680;52.626;-8.668;2022-08-01T10:09:27;1.77;;;0.40;;
64351;SDS011;50680;52.626;-8.668;2022-08-01T10:12:06;0.40;;;0.30;;
64351;SDS011;50680;52.626;-8.668;2022-08-01T10:14:41;0.35;;;0.35;;
64351;SDS011;50680;52.626;-8.668;2022-08-01T10:17:15;1.87;;;0.40;;
64351;SDS011;50680;52.626;-8.668;2022-08-01T10:19:45;0.60;;;0.52;;
64351;SDS011;50680;52.626;-8.668;2022-08-01T10:22:14;0.90;;;0.50;;
64351;SDS011;50680;52.626;-8.668;2022-08-01T10:24:44;1.17;;;0.40;;
64351;SDS011;50680;52.626;-8.668;2022-08-01T10:27:14;2.75;;;0.75;;
64351;SDS011;50680;52.626;-8.668;2022-08-01T10:30:02;2.15;;;0.82;;
64351;SDS011;50680;52.626;-8.668;2022-08-01T10:32:49;0.32;;;0.32;;
64351;SDS011;50680;52.626;-8.668;2022-08-01T10:35:20;0.88;;;0.50;;
64351;SDS011;50680;52.626;-8.668;2022-08-01T10:38:07;1.15;;;0.40;;
64351;SDS011;50680;52.626;-8.668;2022-08-01T10:40:39;2.33;;;0.40;;
64351;SDS011;50680;52.626;-8.668;2022-08-01T10:43:09;2.50;;;0.60;;
64351;SDS011;50680;52.626;-8.668;2022-08-01T10:45:37;1.70;;;0.60;;
64351;SDS011;50680;52.626;-8.668;2022-08-01T10:48:09;1.95;;;0.63;;
64351;SDS011;50680;52.626;-8.668;2022-08-01T10:50:46;1.00;;;0.60;;
64351;SDS011;50680;52.626;-8.668;2022-08-01T10:53:23;5.15;;;0.63;;
64351;SDS011;50680;52.626;-8.668;2022-08-01T10:56:08;1.10;;;0.60;;
64351;SDS011;50680;52.626;-8.668;2022-08-01T10:58:38;0.73;;;0.60;;
64351;SDS011;50680;52.626;-8.668;2022-08-01T11:04:02;0.90;;;0.60;;
64351;SDS011;50680;52.626;-8.668;2022-08-01T11:09:42;0.63;;;0.50;;
64351;SDS011;50680;52.626;-8.668;2022-08-01T11:20:09;1.67;;;0.80;;
64351;SDS011;50680;52.626;-8.668;2022-08-01T11:28:26;0.70;;;0.70;;
64351;SDS011;50680;52.626;-8.668;2022-08-01T11:41:39;1.83;;;0.70;;
64351;SDS011;50680;52.626;-8.668;2022-08-01T11:54:49;0.80;;;0.75;;
64351;SDS011;50680;52.626;-8.668;2022-08-01T11:57:24;1.30;;;0.70;;
64351;SDS011;50680;52.626;-8.668;2022-08-01T12:00:00;2.75;;;0.85;;
64351;SDS011;50680;52.626;-8.668;2022-08-01T12:02:40;2.67;;;0.77;;
64351;SDS011;50680;52.626;-8.668;2022-08-01T12:05:11;2.35;;;0.80;;
64351;SDS011;50680;52.626;-8.668;2022-08-01T12:07:44;0.55;;;0.50;;
64351;SDS011;50680;52.626;-8.668;2022-08-01T12:10:18;0.47;;;0.43;;
64351;SDS011;50680;52.626;-8.668;2022-08-01T12:12:46;1.00;;;0.60;;
64351;SDS011;50680;52.626;-8.668;2022-08-01T12:15:19;0.60;;;0.40;;
64351;SDS011;50680;52.626;-8.668;2022-08-01T12:17:48;0.57;;;0.40;;
64351;SDS011;50680;52.626;-8.668;2022-08-01T12:20:29;0.50;;;0.32;;
64351;SDS011;50680;52.626;-8.668;2022-08-01T12:22:58;0.57;;;0.40;;
64351;SDS011;50680;52.626;-8.668;2022-08-01T12:25:29;0.60;;;0.47;;
64351;SDS011;50680;52.626;-8.668;2022-08-01T12:27:59;0.45;;;0.30;;
64351;SDS011;50680;52.626;-8.668;2022-08-01T12:30:30;0.30;;;0.30;;
64351;SDS011;50680;52.626;-8.668;2022-08-01T12:35:33;1.17;;;0.40;;
64351;SDS011;50680;52.626;-8.668;2022-08-01T12:38:21;1.80;;;0.30;;
64351;SDS011;50680;52.626;-8.668;2022-08-01T12:40:56;0.40;;;0.40;;
64351;SDS011;50680;52.626;-8.668;2022-08-01T12:43:23;0.43;;;0.30;;
64351;SDS011;50680;52.626;-8.668;2022-08-01T12:45:54;0.20;;;0.20;;
64351;SDS011;50680;52.626;-8.668;2022-08-01T12:48:25;1.52;;;0.25;;
64351;SDS011;50680;52.626;-8.668;2022-08-01T12:50:52;0.43;;;0.40;;
64351;SDS011;50680;52.626;-8.668;2022-08-01T12:53:24;2.95;;;0.30;;
64351;SDS011;50680;52.626;-8.668;2022-08-01T12:56:05;0.20;;;0.20;;
64351;SDS011;50680;52.626;-8.668;2022-08-01T12:58:32;0.43;;;0.30;;
64351;SDS011;50680;52.626;-8.668;2022-08-01T13:01:07;0.30;;;0.30;;
64351;SDS011;50680;52.626;-8.668;2022-08-01T13:03:36;1.10;;;0.30;;
64351;SDS011;50680;52.626;-8.668;2022-08-01T13:06:12;1.20;;;0.40;;
64351;SDS011;50680;52.626;-8.668;2022-08-01T13:08:43;0.30;;;0.30;;
64351;SDS011;50680;52.626;-8.668;2022-08-01T13:11:12;1.55;;;0.45;;
64351;SDS011;50680;52.626;-8.668;2022-08-01T13:16:14;0.85;;;0.30;;
64351;SDS011;50680;52.626;-8.668;2022-08-01T13:19:08;0.43;;;0.43;;
64351;SDS011;50680;52.626;-8.668;2022-08-01T13:21:36;0.45;;;0.30;;
64351;SDS011;50680;52.626;-8.668;2022-08-01T13:24:27;0.60;;;0.38;;
64351;SDS011;50680;52.626;-8.668;2022-08-01T13:26:56;0.30;;;0.30;;
64351;SDS011;50680;52.626;-8.668;2022-08-01T13:29:31;0.20;;;0.20;;
64351;SDS011;50680;52.626;-8.668;2022-08-01T13:32:18;0.60;;;0.38;;
64351;SDS011;50680;52.626;-8.668;2022-08-01T13:35:05;1.95;;;0.30;;
64351;SDS011;50680;52.626;-8.668;2022-08-01T13:37:35;0.35;;;0.30;;
64351;SDS011;50680;52.626;-8.668;2022-08-01T13:40:04;0.50;;;0.30;;
64351;SDS011;50680;52.626;-8.668;2022-08-01T13:42:32;2.45;;;0.35;;
64351;SDS011;50680;52.626;-8.668;2022-08-01T13:44:59;0.45;;;0.20;;
64351;SDS011;50680;52.626;-8.668;2022-08-01T13:47:28;2.70;;;0.20;;
64351;SDS011;50680;52.626;-8.668;2022-08-01T13:49:57;1.15;;;0.32;;
64351;SDS011;50680;52.626;-8.668;2022-08-01T13:52:29;3.50;;;0.40;;
64351;SDS011;50680;52.626;-8.668;2022-08-01T13:54:57;0.82;;;0.30;;
64351;SDS011;50680;52.626;-8.668;2022-08-01T13:57:24;0.65;;;0.30;;
64351;SDS011;50680;52.626;-8.668;2022-08-01T14:00:04;1.75;;;0.40;;
64351;SDS011;50680;52.626;-8.668;2022-08-01T14:02:33;1.00;;;0.30;;
64351;SDS011;50680;52.626;-8.668;2022-08-01T14:05:00;3.30;;;1.85;;
64351;SDS011;50680;52.626;-8.668;2022-08-01T14:07:27;5.07;;;0.40;;
64351;SDS011;50680;52.626;-8.668;2022-08-01T14:09:56;2.65;;;0.52;;
64351;SDS011;50680;52.626;-8.668;2022-08-01T14:12:43;2.92;;;0.57;;
64351;SDS011;50680;52.626;-8.668;2022-08-01T14:15:11;1.25;;;0.40;;
64351;SDS011;50680;52.626;-8.668;2022-08-01T14:17:38;2.45;;;0.50;;
64351;SDS011;50680;52.626;-8.668;2022-08-01T14:20:13;2.65;;;0.40;;
64351;SDS011;50680;52.626;-8.668;2022-08-01T14:22:40;5.07;;;0.77;;
64351;SDS011;50680;52.626;-8.668;2022-08-01T14:25:07;3.00;;;0.47;;
64351;SDS011;50680;52.626;-8.668;2022-08-01T14:27:35;1.05;;;0.50;;
64351;SDS011;50680;52.626;-8.668;2022-08-01T14:30:03;1.95;;;0.52;;
64351;SDS011;50680;52.626;-8.668;2022-08-01T14:32:31;3.30;;;0.55;;
64351;SDS011;50680;52.626;-8.668;2022-08-01T14:35:00;3.95;;;0.60;;
64351;SDS011;50680;52.626;-8.668;2022-08-01T14:37:28;1.35;;;0.50;;
64351;SDS011;50680;52.626;-8.668;2022-08-01T14:40:01;1.85;;;0.50;;
64351;SDS011;50680;52.626;-8.668;2022-08-01T14:42:37;1.08;;;0.40;;
64351;SDS011;50680;52.626;-8.668;2022-08-01T14:45:06;1.20;;;0.60;;
64351;SDS011;50680;52.626;-8.668;2022-08-01T14:50:04;3.60;;;0.63;;
64351;SDS011;50680;52.626;-8.668;2022-08-01T14:52:33;2.28;;;0.70;;
64351;SDS011;50680;52.626;-8.668;2022-08-01T14:55:00;3.78;;;0.68;;
64351;SDS011;50680;52.626;-8.668;2022-08-01T14:57:27;5.68;;;0.90;;
64351;SDS011;50680;52.626;-8.668;2022-08-01T14:59:55;2.35;;;0.60;;
64351;SDS011;50680;52.626;-8.668;2022-08-01T15:02:22;3.90;;;0.95;;
64351;SDS011;50680;52.626;-8.668;2022-08-01T15:04:49;3.30;;;0.90;;
64351;SDS011;50680;52.626;-8.668;2022-08-01T15:07:17;5.13;;;1.45;;
64351;SDS011;50680;52.626;-8.668;2022-08-01T15:09:45;9.82;;;1.40;;
64351;SDS011;50680;52.626;-8.668;2022-08-01T15:12:12;6.65;;;1.50;;
64351;SDS011;50680;52.626;-8.668;2022-08-01T15:14:39;7.97;;;1.65;;
64351;SDS011;50680;52.626;-8.668;2022-08-01T15:17:22;8.35;;;1.77;;
64351;SDS011;50680;52.626;-8.668;2022-08-01T15:19:51;12.27;;;1.55;;
64351;SDS011;50680;52.626;-8.668;2022-08-01T15:22:20;7.28;;;1.55;;
64351;SDS011;50680;52.626;-8.668;2022-08-01T15:24:48;7.90;;;1.42;;
64351;SDS011;50680;52.626;-8.668;2022-08-01T15:27:22;9.10;;;1.23;;
64351;SDS011;50680;52.626;-8.668;2022-08-01T15:29:49;7.55;;;1.60;;
64351;SDS011;50680;52.626;-8.668;2022-08-01T15:32:16;6.47;;;1.30;;
64351;SDS011;50680;52.626;-8.668;2022-08-01T15:34:44;10.70;;;1.42;;
64351;SDS011;50680;52.626;-8.668;2022-08-01T15:37:12;8.52;;;1.70;;
64351;SDS011;50680;52.626;-8.668;2022-08-01T15:39:39;7.30;;;1.40;;
64351;SDS011;50680;52.626;-8.668;2022-08-01T15:42:07;6.40;;;2.10;;
64351;SDS011;50680;52.626;-8.668;2022-08-01T15:44:36;6.75;;;1.42;;
64351;SDS011;50680;52.626;-8.668;2022-08-01T15:47:04;6.45;;;1.77;;
64351;SDS011;50680;52.626;-8.668;2022-08-01T15:49:31;6.60;;;1.58;;
64351;SDS011;50680;52.626;-8.668;2022-08-01T15:51:59;6.65;;;2.20;;
64351;SDS011;50680;52.626;-8.668;2022-08-01T15:54:26;8.50;;;2.10;;
64351;SDS011;50680;52.626;-8.668;2022-08-01T15:56:53;10.27;;;1.67;;
64351;SDS011;50680;52.626;-8.668;2022-08-01T15:59:20;8.55;;;2.28;;
64351;SDS011;50680;52.626;-8.668;2022-08-01T16:01:48;8.88;;;2.15;;
64351;SDS011;50680;52.626;-8.668;2022-08-01T16:04:16;7.40;;;1.70;;
64351;SDS011;50680;52.626;-8.668;2022-08-01T16:06:44;12.20;;;2.75;;
64351;SDS011;50680;52.626;-8.668;2022-08-01T16:09:12;11.18;;;2.08;;